Aviation Digital Data Service (ADDS)

Output produced by METARs form (1519 UTC 23 October 2017)
found at http://www.aviationweather.gov/adds/metars/
 
KCXY 231456Z 11005KT 6SM HZ OVC013 18/15 A3021 RMK AO2 SLP229 T01780150 58013
KCXY 231438Z 11006KT 5SM HZ SCT007 OVC013 18/15 A3021 RMK AO2 T01780150
KCXY 231356Z 12007KT 3SM BR OVC008 17/15 A3022 RMK AO2 CIG 006V010 SLP235 T01720150
KCXY 231256Z 13005KT 2SM BR BKN005 BKN010 OVC016 16/14 A3024 RMK AO2 CIG 003V008 SLP242 T01610144
KCXY 231249Z 11004KT 2SM BR BKN006 BKN010 OVC016 16/14 A3024 RMK AO2 CIG 003V008 T01610144
KCXY 231218Z 12008KT 2SM BR FEW006 OVC015 16/14 A3024 RMK AO2 T01560144
KCXY 231158Z 12008KT 2SM BR FEW007 OVC013 16/14 A3024 RMK AO2 T01560139
KCXY 231156Z 12007KT 2SM BR OVC013 16/14 A3024 RMK AO2 SLP242 T01560139 10156 20133 57010
KCXY 231122Z 15007KT 2SM BR BKN006 OVC010 15/13 A3025 RMK AO2 T01500133
KCXY 231056Z 16004KT 3SM BR OVC004 15/13 A3025 RMK AO2 SLP245 T01500133
KCXY 230956Z AUTO 00000KT 3SM BR OVC003 14/12 A3027 RMK AO2 SLP249 T01390122
KCXY 230856Z AUTO 00000KT 10SM OVC003 13/11 A3027 RMK AO2 SLP252 T01330111 58004
KCXY 230807Z AUTO 11004KT 9SM BKN004 13/11 A3028 RMK AO2 T01330111
KCXY 230756Z AUTO 12003KT 10SM BKN005 13/11 A3028 RMK AO2 SLP254 T01330111
KCXY 230751Z AUTO 00000KT 10SM SCT005 13/11 A3028 RMK AO2
KCXY 230656Z AUTO 00000KT 10SM CLR 13/10 A3029 RMK AO2 SLP256 T01330100
KCXY 230556Z AUTO 00000KT 10SM CLR 14/09 A3029 RMK AO2 SLP257 T01440094 10172 20133 56009
KCXY 230456Z AUTO 13006KT 10SM CLR 14/09 A3030 RMK AO2 SLP261 T01390089 402560078
KCXY 230356Z AUTO 12006KT 10SM CLR 14/10 A3030 RMK AO2 SLP261 T01390100
KCXY 230256Z AUTO 13006KT 10SM CLR 15/10 A3032 RMK AO2 SLP268 T01500100 50000
KCXY 230156Z AUTO 13005KT 10SM CLR 16/10 A3033 RMK AO2 SLP273 T01560100
KCXY 230056Z 11004KT 10SM CLR 16/08 A3033 RMK AO2 SLP272 T01610078
KCXY 222356Z 16003KT 10SM CLR 17/08 A3032 RMK AO2 SLP269 T01720083 10256 20167 53010
KCXY 222256Z 15003KT 10SM CLR 19/06 A3030 RMK AO2 SLP261 T01890061
KCXY 222156Z 13011KT 10SM CLR 22/06 A3029 RMK AO2 SLP258 T02170061
KCXY 222056Z 12010KT 10SM CLR 24/06 A3029 RMK AO2 SLP257 T02390061 56016
KCXY 221956Z 17009KT 10SM CLR 25/07 A3030 RMK AO2 SLP259 T02500072
KCXY 221856Z 09009KT 10SM CLR 23/09 A3031 RMK AO2 SLP266 T02330094
KCXY 221756Z 11009KT 10SM CLR 24/11 A3033 RMK AO2 SLP273 T02390106 10239 20078 58017
KCXY 221656Z 10008KT 10SM CLR 22/11 A3035 RMK AO2 SLP279 T02220106
KCXY 221556Z 09005KT 10SM CLR 20/09 A3038 RMK AO2 SLP287 T02000094
KCXY 221456Z 10005KT 10SM CLR 17/08 A3039 RMK AO2 SLP291 T01720078 58004
KCXY 221356Z 10006KT 10SM CLR 14/08 A3039 RMK AO2 SLP293 T01440083
KCXY 221256Z 00000KT 10SM CLR 12/09 A3041 RMK AO2 SLP299 T01170094
KCXY 221156Z 00000KT 8SM CLR 08/06 A3040 RMK AO2 SLP296 T00780061 10100 20078 53012
KCXY 221056Z 00000KT 10SM CLR 08/06 A3038 RMK AO2 SLP289 T00830061
KCXY 220956Z AUTO 15003KT 10SM CLR 08/07 A3038 RMK AO2 SLP289 T00830067
KCXY 220856Z AUTO 22004KT 10SM CLR 08/06 A3036 RMK AO2 SLP283 T00830061 53006
KCXY 220756Z AUTO 00000KT 10SM CLR 09/07 A3034 RMK AO2 SLP276 T00940072
KCXY 220656Z AUTO 00000KT 10SM CLR 09/07 A3035 RMK AO2 SLP276 T00940067
KCXY 220556Z AUTO 00000KT 10SM CLR 10/07 A3034 RMK AO2 SLP276 T01000072 10150 20094 56004
KCXY 220456Z AUTO 00000KT 10SM CLR 10/08 A3035 RMK AO2 SLP277 T01000083 402500056
KCXY 220356Z AUTO 00000KT 10SM CLR 11/08 A3035 RMK AO2 SLP279 T01110083